sensor_id;sensor_type;location;lat;lon;timestamp;P1;durP1;ratioP1;P2;durP2;ratioP2
31206;SDS011;17834;52.992;8.856;2023-04-25T00:01:55;12.05;;;4.43;;
31206;SDS011;17834;52.992;8.856;2023-04-25T00:04:21;13.10;;;3.58;;
31206;SDS011;17834;52.992;8.856;2023-04-25T00:06:47;19.15;;;4.03;;
31206;SDS011;17834;52.992;8.856;2023-04-25T00:09:13;14.90;;;4.07;;
31206;SDS011;17834;52.992;8.856;2023-04-25T00:11:39;11.02;;;3.38;;
31206;SDS011;17834;52.992;8.856;2023-04-25T00:14:05;13.02;;;3.17;;
31206;SDS011;17834;52.992;8.856;2023-04-25T00:16:31;20.20;;;4.07;;
31206;SDS011;17834;52.992;8.856;2023-04-25T00:18:59;17.05;;;3.28;;
31206;SDS011;17834;52.992;8.856;2023-04-25T00:21:25;20.50;;;4.35;;
31206;SDS011;17834;52.992;8.856;2023-04-25T00:23:50;16.65;;;3.55;;
31206;SDS011;17834;52.992;8.856;2023-04-25T00:26:19;14.10;;;3.60;;
31206;SDS011;17834;52.992;8.856;2023-04-25T00:28:46;11.32;;;3.70;;
31206;SDS011;17834;52.992;8.856;2023-04-25T00:31:11;13.57;;;4.43;;
31206;SDS011;17834;52.992;8.856;2023-04-25T00:33:37;13.55;;;3.95;;
31206;SDS011;17834;52.992;8.856;2023-04-25T00:36:03;12.88;;;3.50;;
31206;SDS011;17834;52.992;8.856;2023-04-25T00:38:28;22.02;;;3.72;;
31206;SDS011;17834;52.992;8.856;2023-04-25T00:40:54;13.45;;;4.03;;
31206;SDS011;17834;52.992;8.856;2023-04-25T00:43:20;20.30;;;4.85;;
31206;SDS011;17834;52.992;8.856;2023-04-25T00:45:46;17.33;;;4.25;;
31206;SDS011;17834;52.992;8.856;2023-04-25T00:48:13;11.30;;;3.75;;
31206;SDS011;17834;52.992;8.856;2023-04-25T00:50:39;16.58;;;4.47;;
31206;SDS011;17834;52.992;8.856;2023-04-25T00:53:05;17.80;;;4.47;;
31206;SDS011;17834;52.992;8.856;2023-04-25T00:55:31;23.42;;;4.45;;
31206;SDS011;17834;52.992;8.856;2023-04-25T00:57:59;22.13;;;4.05;;
31206;SDS011;17834;52.992;8.856;2023-04-25T01:00:25;16.08;;;4.05;;
31206;SDS011;17834;52.992;8.856;2023-04-25T01:02:50;12.00;;;3.65;;
31206;SDS011;17834;52.992;8.856;2023-04-25T01:05:17;16.67;;;4.13;;
31206;SDS011;17834;52.992;8.856;2023-04-25T01:07:43;22.10;;;5.22;;
31206;SDS011;17834;52.992;8.856;2023-04-25T01:10:10;26.33;;;4.35;;
31206;SDS011;17834;52.992;8.856;2023-04-25T01:12:35;22.75;;;4.32;;
31206;SDS011;17834;52.992;8.856;2023-04-25T01:15:01;20.08;;;5.10;;
31206;SDS011;17834;52.992;8.856;2023-04-25T01:17:27;22.80;;;5.05;;
31206;SDS011;17834;52.992;8.856;2023-04-25T01:19:54;21.63;;;5.13;;
31206;SDS011;17834;52.992;8.856;2023-04-25T01:22:20;11.52;;;4.03;;
31206;SDS011;17834;52.992;8.856;2023-04-25T01:24:45;18.00;;;4.10;;
31206;SDS011;17834;52.992;8.856;2023-04-25T01:27:11;20.88;;;4.32;;
31206;SDS011;17834;52.992;8.856;2023-04-25T01:29:37;19.70;;;4.68;;
31206;SDS011;17834;52.992;8.856;2023-04-25T01:32:04;18.08;;;4.40;;
31206;SDS011;17834;52.992;8.856;2023-04-25T01:34:30;23.77;;;4.82;;
31206;SDS011;17834;52.992;8.856;2023-04-25T01:36:56;13.98;;;4.68;;
31206;SDS011;17834;52.992;8.856;2023-04-25T01:39:24;13.23;;;4.28;;
31206;SDS011;17834;52.992;8.856;2023-04-25T01:41:50;28.50;;;4.85;;
31206;SDS011;17834;52.992;8.856;2023-04-25T01:44:15;27.83;;;4.70;;
31206;SDS011;17834;52.992;8.856;2023-04-25T01:46:41;27.13;;;5.13;;
31206;SDS011;17834;52.992;8.856;2023-04-25T01:49:07;16.98;;;4.95;;
31206;SDS011;17834;52.992;8.856;2023-04-25T01:51:32;12.85;;;3.63;;
31206;SDS011;17834;52.992;8.856;2023-04-25T01:53:58;23.08;;;4.75;;
31206;SDS011;17834;52.992;8.856;2023-04-25T01:56:24;18.77;;;4.05;;
31206;SDS011;17834;52.992;8.856;2023-04-25T01:58:50;19.10;;;4.20;;
31206;SDS011;17834;52.992;8.856;2023-04-25T02:01:16;14.45;;;3.92;;
31206;SDS011;17834;52.992;8.856;2023-04-25T02:03:42;22.73;;;5.10;;
31206;SDS011;17834;52.992;8.856;2023-04-25T02:06:08;30.05;;;4.32;;
31206;SDS011;17834;52.992;8.856;2023-04-25T02:08:34;25.08;;;4.10;;
31206;SDS011;17834;52.992;8.856;2023-04-25T02:10:59;13.77;;;4.15;;
31206;SDS011;17834;52.992;8.856;2023-04-25T02:13:25;15.05;;;5.28;;
31206;SDS011;17834;52.992;8.856;2023-04-25T02:15:51;19.10;;;4.38;;
31206;SDS011;17834;52.992;8.856;2023-04-25T02:18:16;37.53;;;5.25;;
31206;SDS011;17834;52.992;8.856;2023-04-25T02:20:42;22.30;;;4.65;;
31206;SDS011;17834;52.992;8.856;2023-04-25T02:23:09;25.95;;;5.13;;
31206;SDS011;17834;52.992;8.856;2023-04-25T02:25:34;13.98;;;3.75;;
31206;SDS011;17834;52.992;8.856;2023-04-25T02:28:00;14.60;;;4.30;;
31206;SDS011;17834;52.992;8.856;2023-04-25T02:30:25;21.27;;;4.35;;
31206;SDS011;17834;52.992;8.856;2023-04-25T02:32:51;22.55;;;4.88;;
31206;SDS011;17834;52.992;8.856;2023-04-25T02:35:17;13.98;;;4.10;;
31206;SDS011;17834;52.992;8.856;2023-04-25T02:37:42;19.30;;;4.25;;
31206;SDS011;17834;52.992;8.856;2023-04-25T02:40:08;18.38;;;4.30;;
31206;SDS011;17834;52.992;8.856;2023-04-25T02:42:34;21.67;;;4.72;;
31206;SDS011;17834;52.992;8.856;2023-04-25T02:45:00;14.40;;;4.10;;
31206;SDS011;17834;52.992;8.856;2023-04-25T02:47:26;10.95;;;3.53;;
31206;SDS011;17834;52.992;8.856;2023-04-25T02:49:51;24.90;;;4.45;;
31206;SDS011;17834;52.992;8.856;2023-04-25T02:52:17;13.80;;;3.72;;
31206;SDS011;17834;52.992;8.856;2023-04-25T02:54:42;18.10;;;4.18;;
31206;SDS011;17834;52.992;8.856;2023-04-25T02:57:08;21.88;;;4.80;;
31206;SDS011;17834;52.992;8.856;2023-04-25T02:59:34;20.42;;;4.45;;
31206;SDS011;17834;52.992;8.856;2023-04-25T03:02:00;22.42;;;4.63;;
31206;SDS011;17834;52.992;8.856;2023-04-25T03:04:26;22.67;;;5.20;;
31206;SDS011;17834;52.992;8.856;2023-04-25T03:06:51;20.10;;;4.43;;
31206;SDS011;17834;52.992;8.856;2023-04-25T03:09:17;22.42;;;4.68;;
31206;SDS011;17834;52.992;8.856;2023-04-25T03:11:43;21.20;;;5.65;;
31206;SDS011;17834;52.992;8.856;2023-04-25T03:14:10;18.65;;;4.55;;
31206;SDS011;17834;52.992;8.856;2023-04-25T03:16:35;20.63;;;5.10;;
31206;SDS011;17834;52.992;8.856;2023-04-25T03:19:01;17.42;;;3.83;;
31206;SDS011;17834;52.992;8.856;2023-04-25T03:21:27;19.58;;;4.50;;
31206;SDS011;17834;52.992;8.856;2023-04-25T03:23:53;30.42;;;6.47;;
31206;SDS011;17834;52.992;8.856;2023-04-25T03:26:19;19.35;;;4.00;;
31206;SDS011;17834;52.992;8.856;2023-04-25T03:28:44;17.70;;;3.72;;
31206;SDS011;17834;52.992;8.856;2023-04-25T03:31:10;13.68;;;3.95;;
31206;SDS011;17834;52.992;8.856;2023-04-25T03:33:35;17.88;;;4.00;;
31206;SDS011;17834;52.992;8.856;2023-04-25T03:36:01;17.13;;;3.88;;
31206;SDS011;17834;52.992;8.856;2023-04-25T03:38:27;13.38;;;4.38;;
31206;SDS011;17834;52.992;8.856;2023-04-25T03:40:52;13.43;;;3.58;;
31206;SDS011;17834;52.992;8.856;2023-04-25T03:43:18;18.70;;;3.95;;
31206;SDS011;17834;52.992;8.856;2023-04-25T03:45:44;13.35;;;3.70;;
31206;SDS011;17834;52.992;8.856;2023-04-25T03:48:10;19.25;;;4.32;;
31206;SDS011;17834;52.992;8.856;2023-04-25T03:50:36;13.20;;;4.20;;
31206;SDS011;17834;52.992;8.856;2023-04-25T03:53:02;12.52;;;3.55;;
31206;SDS011;17834;52.992;8.856;2023-04-25T03:55:27;15.98;;;3.05;;
31206;SDS011;17834;52.992;8.856;2023-04-25T03:57:53;14.75;;;4.00;;
31206;SDS011;17834;52.992;8.856;2023-04-25T04:00:18;8.30;;;3.20;;
31206;SDS011;17834;52.992;8.856;2023-04-25T04:02:44;16.27;;;3.40;;
31206;SDS011;17834;52.992;8.856;2023-04-25T04:05:09;16.20;;;4.22;;
31206;SDS011;17834;52.992;8.856;2023-04-25T04:07:35;20.60;;;3.20;;
31206;SDS011;17834;52.992;8.856;2023-04-25T04:10:05;10.32;;;3.60;;
31206;SDS011;17834;52.992;8.856;2023-04-25T04:12:31;12.55;;;3.33;;
31206;SDS011;17834;52.992;8.856;2023-04-25T04:14:57;12.73;;;3.70;;
31206;SDS011;17834;52.992;8.856;2023-04-25T04:17:22;19.88;;;3.58;;
31206;SDS011;17834;52.992;8.856;2023-04-25T04:19:48;11.80;;;3.45;;
31206;SDS011;17834;52.992;8.856;2023-04-25T04:22:14;14.15;;;2.97;;
31206;SDS011;17834;52.992;8.856;2023-04-25T04:24:39;14.25;;;2.90;;
31206;SDS011;17834;52.992;8.856;2023-04-25T04:27:08;8.73;;;3.13;;
31206;SDS011;17834;52.992;8.856;2023-04-25T04:29:34;8.63;;;3.15;;
31206;SDS011;17834;52.992;8.856;2023-04-25T04:32:01;13.35;;;3.15;;
31206;SDS011;17834;52.992;8.856;2023-04-25T04:34:28;17.08;;;3.20;;
31206;SDS011;17834;52.992;8.856;2023-04-25T04:36:54;11.32;;;2.95;;
31206;SDS011;17834;52.992;8.856;2023-04-25T04:39:20;13.68;;;3.38;;
31206;SDS011;17834;52.992;8.856;2023-04-25T04:41:46;16.15;;;3.15;;
31206;SDS011;17834;52.992;8.856;2023-04-25T04:44:11;15.20;;;3.47;;
31206;SDS011;17834;52.992;8.856;2023-04-25T04:46:37;10.77;;;3.45;;
31206;SDS011;17834;52.992;8.856;2023-04-25T04:49:07;18.65;;;2.92;;
31206;SDS011;17834;52.992;8.856;2023-04-25T04:51:33;11.02;;;2.90;;
31206;SDS011;17834;52.992;8.856;2023-04-25T04:53:59;17.27;;;3.70;;
31206;SDS011;17834;52.992;8.856;2023-04-25T04:56:27;15.13;;;3.40;;
31206;SDS011;17834;52.992;8.856;2023-04-25T04:58:56;12.70;;;2.95;;
31206;SDS011;17834;52.992;8.856;2023-04-25T05:01:23;16.27;;;2.75;;
31206;SDS011;17834;52.992;8.856;2023-04-25T05:03:48;8.77;;;2.67;;
31206;SDS011;17834;52.992;8.856;2023-04-25T05:06:15;9.85;;;3.25;;
31206;SDS011;17834;52.992;8.856;2023-04-25T05:08:42;19.15;;;3.13;;
31206;SDS011;17834;52.992;8.856;2023-04-25T05:11:07;14.35;;;3.58;;
31206;SDS011;17834;52.992;8.856;2023-04-25T05:13:33;10.75;;;2.28;;
31206;SDS011;17834;52.992;8.856;2023-04-25T05:15:58;14.40;;;3.03;;
31206;SDS011;17834;52.992;8.856;2023-04-25T05:18:24;11.48;;;2.65;;
31206;SDS011;17834;52.992;8.856;2023-04-25T05:20:50;12.93;;;2.40;;
31206;SDS011;17834;52.992;8.856;2023-04-25T05:23:15;9.68;;;2.33;;
31206;SDS011;17834;52.992;8.856;2023-04-25T05:25:41;12.23;;;3.78;;
31206;SDS011;17834;52.992;8.856;2023-04-25T05:28:06;13.70;;;2.25;;
31206;SDS011;17834;52.992;8.856;2023-04-25T05:30:33;18.15;;;2.40;;
31206;SDS011;17834;52.992;8.856;2023-04-25T05:32:59;9.65;;;2.65;;
31206;SDS011;17834;52.992;8.856;2023-04-25T05:35:25;8.88;;;2.20;;
31206;SDS011;17834;52.992;8.856;2023-04-25T05:37:51;12.95;;;2.20;;
31206;SDS011;17834;52.992;8.856;2023-04-25T05:40:16;9.45;;;2.45;;
31206;SDS011;17834;52.992;8.856;2023-04-25T05:42:42;5.57;;;2.00;;
31206;SDS011;17834;52.992;8.856;2023-04-25T05:45:07;9.27;;;2.97;;
31206;SDS011;17834;52.992;8.856;2023-04-25T05:47:33;9.73;;;2.47;;
31206;SDS011;17834;52.992;8.856;2023-04-25T05:49:59;10.75;;;2.35;;
31206;SDS011;17834;52.992;8.856;2023-04-25T05:52:25;12.07;;;2.13;;
31206;SDS011;17834;52.992;8.856;2023-04-25T05:54:50;5.63;;;2.05;;
31206;SDS011;17834;52.992;8.856;2023-04-25T05:57:22;8.82;;;2.05;;
31206;SDS011;17834;52.992;8.856;2023-04-25T05:59:49;7.72;;;2.13;;
31206;SDS011;17834;52.992;8.856;2023-04-25T06:02:15;11.70;;;2.35;;
31206;SDS011;17834;52.992;8.856;2023-04-25T06:04:41;7.07;;;1.92;;
31206;SDS011;17834;52.992;8.856;2023-04-25T06:07:06;9.55;;;2.17;;
31206;SDS011;17834;52.992;8.856;2023-04-25T06:09:32;8.90;;;2.03;;
31206;SDS011;17834;52.992;8.856;2023-04-25T06:11:57;7.10;;;1.48;;
31206;SDS011;17834;52.992;8.856;2023-04-25T06:14:23;6.13;;;1.27;;
31206;SDS011;17834;52.992;8.856;2023-04-25T06:16:48;8.82;;;1.77;;
31206;SDS011;17834;52.992;8.856;2023-04-25T06:19:14;7.88;;;1.77;;
31206;SDS011;17834;52.992;8.856;2023-04-25T06:21:39;6.15;;;1.45;;
31206;SDS011;17834;52.992;8.856;2023-04-25T06:24:06;10.82;;;1.80;;
31206;SDS011;17834;52.992;8.856;2023-04-25T06:26:32;11.48;;;1.95;;
31206;SDS011;17834;52.992;8.856;2023-04-25T06:28:58;6.30;;;1.45;;
31206;SDS011;17834;52.992;8.856;2023-04-25T06:31:23;10.27;;;1.45;;
31206;SDS011;17834;52.992;8.856;2023-04-25T06:33:49;6.22;;;1.17;;
31206;SDS011;17834;52.992;8.856;2023-04-25T06:36:14;10.20;;;1.50;;
31206;SDS011;17834;52.992;8.856;2023-04-25T06:38:40;9.05;;;1.67;;
31206;SDS011;17834;52.992;8.856;2023-04-25T06:41:05;6.97;;;1.77;;
31206;SDS011;17834;52.992;8.856;2023-04-25T06:43:31;4.18;;;1.30;;
31206;SDS011;17834;52.992;8.856;2023-04-25T06:45:58;7.82;;;1.60;;
31206;SDS011;17834;52.992;8.856;2023-04-25T06:48:25;9.85;;;2.15;;
31206;SDS011;17834;52.992;8.856;2023-04-25T06:50:51;9.57;;;1.50;;
31206;SDS011;17834;52.992;8.856;2023-04-25T06:53:17;4.82;;;1.33;;
31206;SDS011;17834;52.992;8.856;2023-04-25T06:55:43;13.20;;;1.63;;
31206;SDS011;17834;52.992;8.856;2023-04-25T06:58:09;8.68;;;1.60;;
31206;SDS011;17834;52.992;8.856;2023-04-25T07:00:34;6.43;;;1.30;;
31206;SDS011;17834;52.992;8.856;2023-04-25T07:03:01;6.67;;;1.73;;
31206;SDS011;17834;52.992;8.856;2023-04-25T07:05:27;5.22;;;1.45;;
31206;SDS011;17834;52.992;8.856;2023-04-25T07:07:52;7.75;;;1.77;;
31206;SDS011;17834;52.992;8.856;2023-04-25T07:10:18;10.32;;;2.55;;
31206;SDS011;17834;52.992;8.856;2023-04-25T07:12:43;8.15;;;1.60;;
31206;SDS011;17834;52.992;8.856;2023-04-25T07:15:09;11.55;;;1.83;;
31206;SDS011;17834;52.992;8.856;2023-04-25T07:17:36;9.75;;;1.77;;
31206;SDS011;17834;52.992;8.856;2023-04-25T07:20:02;7.70;;;1.50;;
31206;SDS011;17834;52.992;8.856;2023-04-25T07:22:28;7.00;;;1.52;;
31206;SDS011;17834;52.992;8.856;2023-04-25T07:24:54;5.85;;;1.52;;
31206;SDS011;17834;52.992;8.856;2023-04-25T07:27:20;12.15;;;1.67;;
31206;SDS011;17834;52.992;8.856;2023-04-25T07:29:45;4.25;;;1.63;;
31206;SDS011;17834;52.992;8.856;2023-04-25T07:32:11;8.45;;;1.48;;
31206;SDS011;17834;52.992;8.856;2023-04-25T07:34:38;10.82;;;2.40;;
31206;SDS011;17834;52.992;8.856;2023-04-25T07:37:04;6.82;;;1.85;;
31206;SDS011;17834;52.992;8.856;2023-04-25T07:39:30;7.75;;;2.00;;
31206;SDS011;17834;52.992;8.856;2023-04-25T07:41:56;8.80;;;1.30;;
31206;SDS011;17834;52.992;8.856;2023-04-25T07:44:23;7.88;;;1.33;;
31206;SDS011;17834;52.992;8.856;2023-04-25T07:46:49;9.32;;;1.92;;
31206;SDS011;17834;52.992;8.856;2023-04-25T07:49:14;6.32;;;1.20;;
31206;SDS011;17834;52.992;8.856;2023-04-25T07:51:40;11.60;;;1.80;;
31206;SDS011;17834;52.992;8.856;2023-04-25T07:54:08;7.80;;;1.77;;
31206;SDS011;17834;52.992;8.856;2023-04-25T07:56:34;7.55;;;1.60;;
31206;SDS011;17834;52.992;8.856;2023-04-25T07:59:00;6.80;;;1.33;;
31206;SDS011;17834;52.992;8.856;2023-04-25T08:01:25;8.82;;;1.67;;
31206;SDS011;17834;52.992;8.856;2023-04-25T08:03:51;5.57;;;2.05;;
31206;SDS011;17834;52.992;8.856;2023-04-25T08:06:17;9.55;;;1.52;;
31206;SDS011;17834;52.992;8.856;2023-04-25T08:08:43;8.35;;;1.63;;
31206;SDS011;17834;52.992;8.856;2023-04-25T08:11:09;9.63;;;1.52;;
31206;SDS011;17834;52.992;8.856;2023-04-25T08:13:35;9.35;;;1.33;;
31206;SDS011;17834;52.992;8.856;2023-04-25T08:16:01;10.60;;;1.60;;
31206;SDS011;17834;52.992;8.856;2023-04-25T08:18:26;3.40;;;1.27;;
31206;SDS011;17834;52.992;8.856;2023-04-25T08:20:52;5.60;;;1.20;;
31206;SDS011;17834;52.992;8.856;2023-04-25T08:23:17;7.70;;;1.67;;
31206;SDS011;17834;52.992;8.856;2023-04-25T08:25:43;5.03;;;1.42;;
31206;SDS011;17834;52.992;8.856;2023-04-25T08:28:08;3.17;;;1.30;;
31206;SDS011;17834;52.992;8.856;2023-04-25T08:30:34;5.00;;;1.05;;
31206;SDS011;17834;52.992;8.856;2023-04-25T08:33:00;5.00;;;0.98;;
31206;SDS011;17834;52.992;8.856;2023-04-25T08:35:25;8.40;;;1.40;;
31206;SDS011;17834;52.992;8.856;2023-04-25T08:37:51;7.55;;;1.52;;
31206;SDS011;17834;52.992;8.856;2023-04-25T08:40:17;7.70;;;1.85;;
31206;SDS011;17834;52.992;8.856;2023-04-25T08:42:50;12.45;;;1.38;;
31206;SDS011;17834;52.992;8.856;2023-04-25T08:45:18;5.00;;;1.38;;
31206;SDS011;17834;52.992;8.856;2023-04-25T08:47:45;3.63;;;1.00;;
31206;SDS011;17834;52.992;8.856;2023-04-25T08:50:13;5.55;;;1.20;;
31206;SDS011;17834;52.992;8.856;2023-04-25T08:52:41;4.30;;;1.00;;
31206;SDS011;17834;52.992;8.856;2023-04-25T08:55:10;4.05;;;1.20;;
31206;SDS011;17834;52.992;8.856;2023-04-25T08:57:38;4.13;;;1.00;;
31206;SDS011;17834;52.992;8.856;2023-04-25T09:00:04;7.75;;;1.30;;
31206;SDS011;17834;52.992;8.856;2023-04-25T09:02:33;6.97;;;1.05;;
31206;SDS011;17834;52.992;8.856;2023-04-25T09:04:59;3.90;;;1.27;;
31206;SDS011;17834;52.992;8.856;2023-04-25T09:07:24;4.90;;;1.10;;
31206;SDS011;17834;52.992;8.856;2023-04-25T09:09:50;6.25;;;1.25;;
31206;SDS011;17834;52.992;8.856;2023-04-25T09:12:18;6.55;;;1.30;;
31206;SDS011;17834;52.992;8.856;2023-04-25T09:14:52;3.83;;;1.25;;
31206;SDS011;17834;52.992;8.856;2023-04-25T09:17:30;9.90;;;1.17;;
31206;SDS011;17834;52.992;8.856;2023-04-25T09:20:04;2.83;;;1.02;;
31206;SDS011;17834;52.992;8.856;2023-04-25T09:22:40;6.68;;;1.13;;
31206;SDS011;17834;52.992;8.856;2023-04-25T09:25:09;13.35;;;1.35;;
31206;SDS011;17834;52.992;8.856;2023-04-25T09:27:36;3.20;;;0.90;;
31206;SDS011;17834;52.992;8.856;2023-04-25T09:30:14;6.32;;;1.77;;
31206;SDS011;17834;52.992;8.856;2023-04-25T09:32:41;5.15;;;1.00;;
31206;SDS011;17834;52.992;8.856;2023-04-25T09:35:08;4.10;;;0.88;;
31206;SDS011;17834;52.992;8.856;2023-04-25T09:37:34;6.88;;;1.33;;
31206;SDS011;17834;52.992;8.856;2023-04-25T09:40:00;4.57;;;2.17;;
31206;SDS011;17834;52.992;8.856;2023-04-25T09:42:31;11.63;;;1.75;;
31206;SDS011;17834;52.992;8.856;2023-04-25T09:44:57;3.28;;;1.02;;
31206;SDS011;17834;52.992;8.856;2023-04-25T09:47:24;4.60;;;0.80;;
31206;SDS011;17834;52.992;8.856;2023-04-25T09:49:51;3.25;;;0.90;;
31206;SDS011;17834;52.992;8.856;2023-04-25T09:52:19;4.57;;;1.30;;
31206;SDS011;17834;52.992;8.856;2023-04-25T09:54:46;3.70;;;1.15;;
31206;SDS011;17834;52.992;8.856;2023-04-25T09:57:20;4.50;;;1.15;;
31206;SDS011;17834;52.992;8.856;2023-04-25T09:59:51;3.03;;;0.70;;
31206;SDS011;17834;52.992;8.856;2023-04-25T10:02:18;6.38;;;0.88;;
31206;SDS011;17834;52.992;8.856;2023-04-25T10:04:48;3.45;;;0.90;;
31206;SDS011;17834;52.992;8.856;2023-04-25T10:07:17;2.67;;;0.90;;
31206;SDS011;17834;52.992;8.856;2023-04-25T10:09:44;2.35;;;0.73;;
31206;SDS011;17834;52.992;8.856;2023-04-25T10:12:14;8.02;;;1.27;;
31206;SDS011;17834;52.992;8.856;2023-04-25T10:14:41;5.60;;;0.90;;
31206;SDS011;17834;52.992;8.856;2023-04-25T10:17:07;5.28;;;0.88;;
31206;SDS011;17834;52.992;8.856;2023-04-25T10:19:36;5.13;;;0.93;;
31206;SDS011;17834;52.992;8.856;2023-04-25T10:22:11;4.63;;;0.80;;
31206;SDS011;17834;52.992;8.856;2023-04-25T10:24:58;5.07;;;1.20;;
31206;SDS011;17834;52.992;8.856;2023-04-25T10:27:27;1.77;;;0.82;;
31206;SDS011;17834;52.992;8.856;2023-04-25T10:30:06;2.65;;;1.10;;
31206;SDS011;17834;52.992;8.856;2023-04-25T10:32:37;5.20;;;0.80;;
31206;SDS011;17834;52.992;8.856;2023-04-25T10:35:36;1.73;;;0.70;;
31206;SDS011;17834;52.992;8.856;2023-04-25T10:37:56;6.15;;;0.88;;
31206;SDS011;17834;52.992;8.856;2023-04-25T10:40:25;4.95;;;1.05;;
31206;SDS011;17834;52.992;8.856;2023-04-25T10:42:52;4.28;;;0.80;;
31206;SDS011;17834;52.992;8.856;2023-04-25T10:45:19;4.55;;;1.00;;
31206;SDS011;17834;52.992;8.856;2023-04-25T10:47:45;4.13;;;0.90;;
31206;SDS011;17834;52.992;8.856;2023-04-25T10:50:11;3.17;;;0.98;;
31206;SDS011;17834;52.992;8.856;2023-04-25T10:52:41;8.45;;;1.33;;
31206;SDS011;17834;52.992;8.856;2023-04-25T10:55:06;5.25;;;1.75;;
31206;SDS011;17834;52.992;8.856;2023-04-25T11:02:46;1.83;;;0.80;;
31206;SDS011;17834;52.992;8.856;2023-04-25T11:07:57;3.80;;;1.10;;
31206;SDS011;17834;52.992;8.856;2023-04-25T11:10:30;2.25;;;0.80;;
31206;SDS011;17834;52.992;8.856;2023-04-25T11:12:58;4.43;;;1.10;;
31206;SDS011;17834;52.992;8.856;2023-04-25T11:15:25;4.45;;;0.90;;
31206;SDS011;17834;52.992;8.856;2023-04-25T11:17:51;5.40;;;1.10;;
31206;SDS011;17834;52.992;8.856;2023-04-25T11:20:17;4.65;;;1.10;;
31206;SDS011;17834;52.992;8.856;2023-04-25T11:22:44;3.55;;;1.10;;
31206;SDS011;17834;52.992;8.856;2023-04-25T11:25:11;6.15;;;0.80;;
31206;SDS011;17834;52.992;8.856;2023-04-25T11:27:39;5.03;;;1.00;;
31206;SDS011;17834;52.992;8.856;2023-04-25T11:30:23;5.70;;;1.00;;
31206;SDS011;17834;52.992;8.856;2023-04-25T11:32:49;3.30;;;1.13;;
31206;SDS011;17834;52.992;8.856;2023-04-25T11:35:16;5.15;;;0.80;;
31206;SDS011;17834;52.992;8.856;2023-04-25T11:37:43;4.07;;;1.25;;
31206;SDS011;17834;52.992;8.856;2023-04-25T11:40:09;6.72;;;1.13;;
31206;SDS011;17834;52.992;8.856;2023-04-25T11:42:36;6.60;;;1.13;;
31206;SDS011;17834;52.992;8.856;2023-04-25T11:45:09;6.30;;;0.95;;
31206;SDS011;17834;52.992;8.856;2023-04-25T11:47:35;4.22;;;1.20;;
31206;SDS011;17834;52.992;8.856;2023-04-25T11:50:02;10.18;;;1.58;;
31206;SDS011;17834;52.992;8.856;2023-04-25T11:52:40;2.28;;;0.85;;
31206;SDS011;17834;52.992;8.856;2023-04-25T11:55:17;9.55;;;1.38;;
31206;SDS011;17834;52.992;8.856;2023-04-25T11:57:45;8.95;;;1.50;;
31206;SDS011;17834;52.992;8.856;2023-04-25T12:00:15;4.85;;;1.15;;
31206;SDS011;17834;52.992;8.856;2023-04-25T12:02:43;2.67;;;0.90;;
31206;SDS011;17834;52.992;8.856;2023-04-25T12:05:11;5.72;;;1.83;;
31206;SDS011;17834;52.992;8.856;2023-04-25T12:07:37;1.92;;;1.08;;
31206;SDS011;17834;52.992;8.856;2023-04-25T12:10:04;5.72;;;1.20;;
31206;SDS011;17834;52.992;8.856;2023-04-25T12:12:43;7.30;;;1.40;;
31206;SDS011;17834;52.992;8.856;2023-04-25T12:15:11;6.60;;;1.63;;
31206;SDS011;17834;52.992;8.856;2023-04-25T12:17:40;8.25;;;1.60;;
31206;SDS011;17834;52.992;8.856;2023-04-25T12:20:07;5.35;;;1.45;;
31206;SDS011;17834;52.992;8.856;2023-04-25T12:22:34;3.50;;;1.52;;
31206;SDS011;17834;52.992;8.856;2023-04-25T12:25:01;3.78;;;0.90;;
31206;SDS011;17834;52.992;8.856;2023-04-25T12:27:30;7.25;;;1.45;;
31206;SDS011;17834;52.992;8.856;2023-04-25T12:29:56;5.55;;;1.25;;
31206;SDS011;17834;52.992;8.856;2023-04-25T12:32:22;3.67;;;1.10;;
31206;SDS011;17834;52.992;8.856;2023-04-25T12:34:49;3.78;;;1.00;;
31206;SDS011;17834;52.992;8.856;2023-04-25T12:37:14;3.22;;;1.10;;
31206;SDS011;17834;52.992;8.856;2023-04-25T12:39:40;1.25;;;0.80;;
31206;SDS011;17834;52.992;8.856;2023-04-25T12:42:06;3.50;;;0.95;;
31206;SDS011;17834;52.992;8.856;2023-04-25T12:44:36;2.75;;;0.98;;
31206;SDS011;17834;52.992;8.856;2023-04-25T12:47:02;4.07;;;0.93;;
31206;SDS011;17834;52.992;8.856;2023-04-25T12:49:28;1.98;;;0.70;;
31206;SDS011;17834;52.992;8.856;2023-04-25T12:51:54;3.80;;;1.15;;
31206;SDS011;17834;52.992;8.856;2023-04-25T12:54:20;4.65;;;1.00;;
31206;SDS011;17834;52.992;8.856;2023-04-25T12:56:45;5.22;;;0.98;;
31206;SDS011;17834;52.992;8.856;2023-04-25T12:59:12;5.40;;;1.35;;
31206;SDS011;17834;52.992;8.856;2023-04-25T13:01:37;1.67;;;0.95;;
31206;SDS011;17834;52.992;8.856;2023-04-25T13:04:03;4.10;;;1.20;;
31206;SDS011;17834;52.992;8.856;2023-04-25T13:06:29;4.50;;;1.15;;
31206;SDS011;17834;52.992;8.856;2023-04-25T13:08:55;9.65;;;1.10;;
31206;SDS011;17834;52.992;8.856;2023-04-25T13:11:21;4.00;;;1.05;;
31206;SDS011;17834;52.992;8.856;2023-04-25T13:13:47;6.32;;;2.13;;
31206;SDS011;17834;52.992;8.856;2023-04-25T13:16:12;5.35;;;1.00;;
31206;SDS011;17834;52.992;8.856;2023-04-25T13:18:39;6.07;;;1.20;;
31206;SDS011;17834;52.992;8.856;2023-04-25T13:21:05;3.50;;;1.20;;
31206;SDS011;17834;52.992;8.856;2023-04-25T13:23:30;3.75;;;1.40;;
31206;SDS011;17834;52.992;8.856;2023-04-25T13:25:56;5.35;;;1.52;;
31206;SDS011;17834;52.992;8.856;2023-04-25T13:28:23;7.32;;;2.08;;
31206;SDS011;17834;52.992;8.856;2023-04-25T13:30:51;5.30;;;1.48;;
31206;SDS011;17834;52.992;8.856;2023-04-25T13:33:17;8.02;;;1.77;;
31206;SDS011;17834;52.992;8.856;2023-04-25T13:35:43;7.07;;;1.70;;
31206;SDS011;17834;52.992;8.856;2023-04-25T13:38:12;5.35;;;1.65;;
31206;SDS011;17834;52.992;8.856;2023-04-25T13:40:38;8.40;;;1.73;;
31206;SDS011;17834;52.992;8.856;2023-04-25T13:43:04;6.10;;;1.83;;
31206;SDS011;17834;52.992;8.856;2023-04-25T13:45:31;6.47;;;1.73;;
31206;SDS011;17834;52.992;8.856;2023-04-25T13:47:57;3.55;;;1.70;;
31206;SDS011;17834;52.992;8.856;2023-04-25T13:50:22;10.98;;;2.03;;
31206;SDS011;17834;52.992;8.856;2023-04-25T13:52:48;4.03;;;1.45;;
31206;SDS011;17834;52.992;8.856;2023-04-25T13:55:13;5.18;;;1.25;;
31206;SDS011;17834;52.992;8.856;2023-04-25T13:57:39;6.18;;;1.48;;
31206;SDS011;17834;52.992;8.856;2023-04-25T14:00:05;6.30;;;1.48;;
31206;SDS011;17834;52.992;8.856;2023-04-25T14:02:33;2.78;;;1.10;;
31206;SDS011;17834;52.992;8.856;2023-04-25T14:04:59;2.88;;;1.05;;
31206;SDS011;17834;52.992;8.856;2023-04-25T14:07:26;4.53;;;0.95;;
31206;SDS011;17834;52.992;8.856;2023-04-25T14:09:51;2.45;;;1.13;;
31206;SDS011;17834;52.992;8.856;2023-04-25T14:12:17;1.90;;;0.70;;
31206;SDS011;17834;52.992;8.856;2023-04-25T14:14:43;7.00;;;1.30;;
31206;SDS011;17834;52.992;8.856;2023-04-25T14:17:08;3.88;;;0.85;;
31206;SDS011;17834;52.992;8.856;2023-04-25T14:19:34;2.20;;;0.80;;
31206;SDS011;17834;52.992;8.856;2023-04-25T14:22:00;6.97;;;1.02;;
31206;SDS011;17834;52.992;8.856;2023-04-25T14:24:26;2.90;;;0.93;;
31206;SDS011;17834;52.992;8.856;2023-04-25T14:26:51;4.30;;;1.33;;
31206;SDS011;17834;52.992;8.856;2023-04-25T14:29:17;4.10;;;1.30;;
31206;SDS011;17834;52.992;8.856;2023-04-25T14:31:43;4.18;;;1.30;;
31206;SDS011;17834;52.992;8.856;2023-04-25T14:34:08;6.03;;;1.50;;
31206;SDS011;17834;52.992;8.856;2023-04-25T14:36:35;5.03;;;1.05;;
31206;SDS011;17834;52.992;8.856;2023-04-25T14:39:01;4.75;;;1.00;;
31206;SDS011;17834;52.992;8.856;2023-04-25T14:41:27;4.60;;;1.10;;
31206;SDS011;17834;52.992;8.856;2023-04-25T14:43:53;5.75;;;1.30;;
31206;SDS011;17834;52.992;8.856;2023-04-25T14:46:21;5.88;;;1.42;;
31206;SDS011;17834;52.992;8.856;2023-04-25T14:48:48;5.70;;;0.98;;